Terminal Aerodrome Forecast
Issued by NWS

Home | Current Version | Previous Version | Text Only | Print | Product List | Glossary On
Versions: 1 2 3 4 5 6 7 8 9 10 11 12 13 14 15 16 17 18 19 20 21 22 23 24 25 26 27 28 29 30 31 32 33 34 35 36 37 38 39 40
462
FTUS45 KBOU 080704 AAA
TAFBJC
TAF AMD
KBJC 080704Z 0807/0906 17006KT P6SM FEW050 BKN090
     FM081000 20007KT P6SM SCT090 SCT220
     FM081400 VRB04KT P6SM SCT220=

USA.gov is the U.S. government's official web portal to all federal, state and local government web resources and services.